Accueil
METAR-TAF:

METAR-TAF

Aéroports :

Gioia del Colle, Italie

latitude: 40-46N, longitude: 016-56E, altitude: 345 m

Observation

Le bulletin a été fait il y a 28 minutes, à 05:55 UTC
Vent 8 kt de nord
Température 3°C
Humidité 65%
Pression 1024 hPa
Visibilité 10 km ou plus
Nuages fragmentés à une hauteur de 2300 ft

METAR: LIBV 240555Z 01008KT 9999 BKN023 03/M03 Q1024 RMK BKN VIS MIN 9999 WIND THR32 02007KT WIND THR14 01007KT WHT

Heure: 07:23 (06:23 UTC)

Prévision

Le bulletin a été fait il y a 4 heures et 23 minutes, à 02:00 UTC
Prévision valable du 24 à 03 UTC au 24 à 12 UTC
Vent 15 kt de nord/nord-ouest
Visibilité: 8000 m
Nuages fragmentés à une hauteur de 2000 ft
Temporairement
du 24 à 03 UTC au 24 à 06 UTC
Vent 18 kt de nord-ouest avec des rafales jusqu'à 30 kt
Visibilité: 5000 m
pluie

TAF: LIBV 240200Z 2403/2412 33015KT 8000 BKN020 TEMPO 2403/2406 32018G30KT 5000 RA

Observations et prévisions météorologiques de plus de 4000 aéroports (messages METAR et TAF).

Les stations disponibles sont représentées par des disques jaunes et rouges sur la carte.

Passer la souris dessus pour voir le nom de la station.

Cliquer dessus pour voir les observations et prévisions météorologiques.

Pour changer de carte: cliquez sur les boutons verts avec une croix noire pour zoomer, sur le bouton vert avec un tiret pour effectuer un zoom arrière, ou sur les flèches vertes pour les cartes adjacentes.


METAR-TAF: